Johnsonburg, New Jersey
Current Conditions -  °F | °C
As of 8:53 AM on Monday 26 Jan 2015 (Local Time) from KFWN Reporting Station
Overcast Overcast  
Wind Chill:   Ceiling: 3200
Heat Index: 15°   Visibility: 10mi
Dew Point:   Wind: 10mph
Humidity: 64%   Direction: 30°NNE
Pressure: 29.98"   Gusts: NA
Location:  40.96°N, 74.88°W
Report Text: KFWN 261353Z AUTO 03009KT 10SM OVC032 M09/M15 A2998 RMK AO2 SNE1258 SLP159 P0000 T10941150
Loading
Personal Weather Stations






























Interactive Weather Map New forecast layout! Learn more

10-Day Weather Forecast

Advertisements
Track Severe Weather on mobile